Time;durP1;ratioP1;P1;durP2;ratioP2;P2;SDS_P1;SDS_P2;PMS_P1;PMS_P2;Temp;Humidity;BMP_temperature;BMP_pressure;BME280_temperature;BME280_humidity;BME280_pressure;Samples;Min_cycle;Max_cycle;Signal;HPM_P1;HPM_P2
2020/12/04 00:02:14;;;;;;;10.82;6.10;;;7.10;84.50;;;6.92;70.85;97561.16;4976517;28;20047;-81
2020/12/04 00:04:41;;;;;;;10.95;5.93;;;7.00;84.20;;;6.91;71.10;97545.97;4976291;28;20503;-81
2020/12/04 00:07:08;;;;;;;10.57;6.40;;;7.10;84.80;;;6.90;71.48;97547.88;4976478;28;20101;-81
2020/12/04 00:09:35;;;;;;;8.98;5.45;;;7.10;84.90;;;6.89;71.52;97534.59;4975968;28;20110;-81
2020/12/04 00:12:01;;;;;;;11.25;5.70;;;7.10;84.80;;;6.89;71.31;97526.47;4975798;28;20051;-81
2020/12/04 00:14:28;;;;;;;8.95;5.50;;;7.10;84.80;;;6.91;71.28;97519.78;4972228;28;20054;-81
2020/12/04 00:16:56;;;;;;;9.20;5.70;;;7.10;84.60;;;6.91;71.84;97525.19;4975537;28;20149;-80
2020/12/04 00:19:22;;;;;;;13.77;6.32;;;7.10;85.00;;;6.91;71.31;97508.97;4977553;28;20054;-81
2020/12/04 00:21:51;;;;;;;9.05;5.97;;;7.10;85.00;;;6.92;71.61;97515.19;4976843;28;20097;-81
2020/12/04 00:24:18;;;;;;;10.40;6.28;;;7.10;85.00;;;6.91;71.59;97503.56;4976269;28;20046;-81
2020/12/04 00:26:44;;;;;;;10.18;5.90;;;7.10;85.00;;;6.91;72.28;97494.63;4977050;28;20042;-80
2020/12/04 00:29:11;;;;;;;11.95;6.15;;;7.10;85.00;;;6.90;72.04;97504.63;4977458;28;20134;-81
2020/12/04 00:31:38;;;;;;;10.52;6.28;;;7.00;85.60;;;6.91;72.08;97497.31;4976818;28;20050;-81
2020/12/04 00:34:05;;;;;;;10.40;6.03;;;7.00;85.50;;;6.93;72.60;97495.19;4976395;28;20047;-80
2020/12/04 00:36:32;;;;;;;9.30;5.75;;;7.00;85.60;;;6.87;72.80;97486.16;4977237;28;20523;-81
2020/12/04 00:38:59;;;;;;;10.80;5.97;;;7.00;85.70;;;6.83;72.83;97491.22;4972812;28;20043;-81
2020/12/04 00:41:26;;;;;;;11.10;5.75;;;7.00;85.80;;;6.86;71.84;97484.53;4976190;28;20130;-81
2020/12/04 00:43:52;;;;;;;11.18;5.90;;;7.00;85.20;;;6.87;72.83;97479.94;4976660;28;20117;-81
2020/12/04 00:46:19;;;;;;;11.32;6.00;;;7.00;86.00;;;6.89;72.60;97478.63;4975088;28;20125;-81
2020/12/04 00:48:46;;;;;;;10.60;5.60;;;7.00;86.40;;;6.90;73.11;97469.47;4975509;28;20050;-81
2020/12/04 00:51:14;;;;;;;10.77;5.65;;;7.00;86.70;;;6.85;73.22;97472.06;4972355;28;20031;-81
2020/12/04 00:53:41;;;;;;;9.48;5.22;;;7.00;86.80;;;6.85;73.33;97466.66;4957844;28;20043;-81
2020/12/04 00:56:08;;;;;;;9.45;5.63;;;7.00;87.00;;;6.87;73.02;97458.31;4957953;28;20094;-81
2020/12/04 00:58:39;;;;;;;9.00;5.20;;;7.00;87.20;;;6.83;73.83;97455.25;4955909;29;20063;-81
2020/12/04 01:01:06;;;;;;;9.02;5.20;;;7.00;87.20;;;6.87;73.66;97464.53;4955696;29;20623;-81
2020/12/04 01:03:33;;;;;;;8.63;5.40;;;7.00;87.20;;;6.85;74.02;97455.84;4957971;28;20071;-81
2020/12/04 01:06:00;;;;;;;10.88;4.50;;;7.00;87.00;;;6.84;74.48;97452.31;4957168;28;20047;-81
2020/12/04 01:08:28;;;;;;;9.77;5.03;;;7.00;87.50;;;6.85;74.07;97445.03;4960442;28;20059;-81
2020/12/04 01:10:56;;;;;;;7.43;4.80;;;7.00;87.30;;;6.87;74.23;97439.38;4960678;28;20054;-81
2020/12/04 01:13:22;;;;;;;8.30;4.55;;;7.10;87.60;;;6.89;73.99;97432.66;4962325;28;20055;-81
2020/12/04 01:15:49;;;;;;;7.10;4.32;;;7.10;87.60;;;6.89;73.83;97432.66;4961516;28;20130;-81
2020/12/04 01:18:17;;;;;;;8.27;5.13;;;7.10;87.80;;;6.91;73.98;97435.16;4961590;28;20051;-81
2020/12/04 01:20:44;;;;;;;9.10;4.75;;;7.10;87.80;;;6.86;74.63;97430.47;4960937;28;20047;-80
2020/12/04 01:23:10;;;;;;;9.32;4.35;;;7.10;88.00;;;6.88;74.38;97432.94;4960054;29;20075;-81
2020/12/04 01:25:38;;;;;;;9.35;4.55;;;7.10;88.20;;;6.90;74.38;97420.81;4959808;28;20082;-81
2020/12/04 01:28:05;;;;;;;7.20;4.40;;;7.10;87.80;;;6.92;74.05;97428.69;4960647;29;20114;-81
2020/12/04 01:30:32;;;;;;;7.60;4.78;;;7.10;87.70;;;6.89;74.93;97413.75;4961078;29;20043;-81
2020/12/04 01:32:58;;;;;;;8.63;4.40;;;7.10;88.00;;;6.89;74.69;97419.16;4960208;29;20098;-81
2020/12/04 01:35:25;;;;;;;7.53;4.43;;;7.10;87.90;;;6.88;74.53;97412.13;4961656;28;20063;-81
2020/12/04 01:37:52;;;;;;;8.35;4.57;;;7.10;88.00;;;6.91;74.41;97408.13;4969409;28;20071;-81
2020/12/04 01:40:19;;;;;;;9.45;5.28;;;7.10;88.40;;;6.92;75.07;97399.78;4967828;29;20074;-81
2020/12/04 01:42:48;;;;;;;7.47;4.45;;;7.10;88.30;;;6.89;74.51;97413.75;4968558;28;20051;-81
2020/12/04 01:45:14;;;;;;;9.52;5.00;;;7.10;88.40;;;6.81;75.18;97396.03;4967167;28;20081;-81
2020/12/04 01:47:42;;;;;;;8.82;5.07;;;7.10;88.60;;;6.86;75.44;97387.22;4969910;28;20047;-81
2020/12/04 01:50:09;;;;;;;7.97;4.80;;;7.10;88.60;;;6.89;75.67;97392.13;4984931;28;20046;-81
2020/12/04 01:52:36;;;;;;;8.95;5.00;;;7.00;88.70;;;6.85;75.36;97388.25;4985213;28;20133;-81
2020/12/04 01:55:02;;;;;;;9.25;5.30;;;7.00;88.80;;;6.87;75.36;97386.13;4983796;28;20054;-81
2020/12/04 01:57:34;;;;;;;7.57;4.50;;;7.00;88.90;;;6.85;75.21;97380.16;4983048;28;20046;-81
2020/12/04 02:00:04;;;;;;;9.45;4.82;;;7.00;89.20;;;6.88;75.56;97368.06;4982654;28;20047;-81
2020/12/04 02:02:39;;;;;;;9.05;4.85;;;7.00;89.30;;;6.87;76.17;97369.09;4982305;28;20054;-81
2020/12/04 02:05:05;;;;;;;8.90;4.53;;;7.00;89.50;;;6.86;75.45;97368.28;4978611;28;20051;-81
2020/12/04 02:07:40;;;;;;;8.27;4.43;;;7.00;89.50;;;6.87;75.97;97356.41;4977274;28;20085;-81
2020/12/04 02:10:13;;;;;;;9.07;4.35;;;7.00;89.60;;;6.87;76.20;97361.81;4978582;28;20113;-81
2020/12/04 02:12:42;;;;;;;8.23;4.25;;;7.00;89.60;;;6.90;75.87;97345.13;4979631;28;20522;-81
2020/12/04 02:15:10;;;;;;;7.20;4.20;;;7.00;89.50;;;6.84;75.97;97349.59;4977374;28;20105;-81
2020/12/04 02:17:38;;;;;;;6.97;4.00;;;7.00;89.70;;;6.87;76.22;97353.69;4979239;28;20498;-81
2020/12/04 02:20:05;;;;;;;8.25;4.22;;;7.10;89.80;;;6.85;76.18;97331.50;4978711;28;20043;-81
2020/12/04 02:22:38;;;;;;;6.60;3.72;;;7.10;89.70;;;6.92;75.76;97342.19;4981729;28;20482;-81
2020/12/04 02:25:08;;;;;;;7.55;4.35;;;7.00;89.60;;;6.86;75.89;97330.44;4982809;28;20085;-81
2020/12/04 02:27:35;;;;;;;7.38;4.05;;;7.10;89.70;;;6.87;76.10;97325.84;4983322;28;20098;-81
2020/12/04 02:30:04;;;;;;;6.55;3.83;;;7.10;89.50;;;6.87;76.20;97306.94;4982923;28;20585;-81
2020/12/04 02:32:31;;;;;;;6.70;4.03;;;7.10;89.40;;;6.87;75.96;97307.75;4980921;28;20117;-81
2020/12/04 02:34:57;;;;;;;7.13;3.60;;;7.10;89.60;;;6.88;77.02;97293.19;4962546;28;20043;-81
2020/12/04 02:37:24;;;;;;;8.10;4.00;;;7.10;89.90;;;6.90;76.23;97282.94;4962036;28;20047;-81
2020/12/04 02:39:56;;;;;;;7.75;4.05;;;7.10;89.70;;;6.90;75.74;97282.94;4959804;28;20130;-81
2020/12/04 02:42:23;;;;;;;6.05;3.80;;;7.10;89.50;;;6.92;75.71;97272.72;4958927;28;20051;-81
2020/12/04 02:44:49;;;;;;;8.05;3.97;;;7.10;89.70;;;6.89;75.79;97258.84;4958682;28;20607;-81
2020/12/04 02:47:16;;;;;;;5.80;3.40;;;7.10;89.50;;;6.93;75.76;97274.38;4959121;28;20051;-81
2020/12/04 02:49:43;;;;;;;6.63;3.80;;;7.10;89.60;;;6.90;76.13;97247.81;4959689;28;20051;-81
2020/12/04 02:52:10;;;;;;;6.78;3.70;;;7.10;89.90;;;6.90;75.96;97263.22;4959427;28;20043;-81
2020/12/04 02:54:36;;;;;;;5.85;3.47;;;7.10;89.70;;;6.91;75.96;97254.03;4973437;28;20822;-81
2020/12/04 02:57:04;;;;;;;6.57;3.65;;;7.10;89.70;;;6.95;75.88;97260.59;4959327;28;20121;-80
2020/12/04 02:59:31;;;;;;;6.47;3.65;;;7.10;89.60;;;6.95;76.29;97239.81;4959129;28;20047;-81
2020/12/04 03:01:57;;;;;;;7.30;3.63;;;7.10;89.40;;;7.00;76.11;97252.59;4958729;28;20079;-81
2020/12/04 03:04:24;;;;;;;6.90;3.78;;;7.10;89.50;;;6.98;75.16;97236.59;4960319;28;20138;-81
2020/12/04 03:06:51;;;;;;;6.10;3.35;;;7.10;89.60;;;6.98;75.87;97228.50;4977751;28;20054;-81
2020/12/04 03:09:18;;;;;;;6.55;3.63;;;7.10;89.50;;;6.96;75.39;97227.91;4980541;28;20054;-81
2020/12/04 03:11:44;;;;;;;6.90;3.53;;;7.20;89.40;;;6.88;75.28;97222.91;4969867;28;20047;-81
2020/12/04 03:14:12;;;;;;;5.65;3.42;;;7.20;88.60;;;6.90;75.40;97223.47;4980559;28;20102;-81
2020/12/04 03:16:39;;;;;;;6.85;3.90;;;7.20;88.80;;;6.97;75.51;97210.66;4980938;28;20114;-81
2020/12/04 03:19:05;;;;;;;6.43;3.60;;;7.20;88.70;;;6.99;75.78;97208.50;4978958;28;20118;-81
2020/12/04 03:21:32;;;;;;;6.38;3.80;;;7.20;88.80;;;7.02;75.10;97218.00;4979642;28;20093;-81
2020/12/04 03:23:59;;;;;;;6.18;3.40;;;7.20;88.80;;;7.02;75.16;97207.19;4976187;28;20082;-81
2020/12/04 03:26:26;;;;;;;6.05;3.50;;;7.20;88.70;;;7.00;74.87;97209.31;4977399;28;20062;-81
2020/12/04 03:28:52;;;;;;;6.18;3.50;;;7.20;88.40;;;6.98;74.43;97187.94;4977764;28;20110;-81
2020/12/04 03:31:20;;;;;;;5.97;2.97;;;7.20;88.50;;;6.98;75.30;97196.03;4978450;28;20121;-81
2020/12/04 03:33:47;;;;;;;5.28;3.20;;;7.20;88.20;;;6.96;74.39;97183.84;4965931;28;20107;-81
2020/12/04 03:36:13;;;;;;;5.65;3.28;;;7.20;88.10;;;6.99;74.79;97184.19;4958459;28;20106;-81
2020/12/04 03:38:40;;;;;;;6.15;3.50;;;7.20;88.30;;;6.99;74.63;97180.66;4958017;28;20500;-81
2020/12/04 03:41:07;;;;;;;6.25;3.28;;;7.30;88.10;;;6.95;73.96;97174.94;4958264;28;20065;-80
2020/12/04 03:43:40;;;;;;;5.35;3.08;;;7.30;88.00;;;6.98;74.65;97169.00;4958630;28;20067;-81
2020/12/04 03:46:08;;;;;;;5.75;3.25;;;7.30;88.00;;;7.02;74.65;97170.16;4958638;28;20102;-80
2020/12/04 03:48:36;;;;;;;5.15;3.13;;;7.30;87.90;;;7.05;74.64;97175.09;4957872;28;20098;-81
2020/12/04 03:51:03;;;;;;;5.00;2.95;;;7.20;87.80;;;7.03;74.93;97188.03;4957944;28;20085;-80
2020/12/04 03:53:29;;;;;;;5.78;3.35;;;7.30;88.10;;;7.01;74.34;97184.75;4958053;28;20063;-81
2020/12/04 03:55:56;;;;;;;4.97;2.78;;;7.30;87.90;;;7.02;74.21;97191.78;4958184;28;20058;-80
2020/12/04 03:58:23;;;;;;;5.07;2.70;;;7.30;87.70;;;6.95;73.69;97179.50;4958124;28;20051;-81
2020/12/04 04:00:50;;;;;;;5.63;3.15;;;7.30;87.40;;;6.98;74.25;97162.78;4957414;28;20050;-81
2020/12/04 04:03:16;;;;;;;5.65;3.00;;;7.30;87.40;;;6.94;73.59;97188.69;4955950;29;20071;-81
2020/12/04 04:05:44;;;;;;;5.15;2.95;;;7.40;86.80;;;6.91;74.44;97181.88;4970189;28;20466;-80
2020/12/04 04:08:11;;;;;;;5.28;2.90;;;7.40;86.80;;;6.96;74.08;97189.25;4977005;28;20039;-81
2020/12/04 04:10:38;;;;;;;5.43;3.03;;;7.40;86.70;;;6.99;73.64;97181.47;4977116;28;20078;-81
2020/12/04 04:13:05;;;;;;;5.60;3.17;;;7.40;86.80;;;7.02;74.19;97194.50;4977325;28;20078;-81
2020/12/04 04:15:31;;;;;;;5.25;2.78;;;7.40;87.10;;;7.07;74.94;97193.78;4977338;28;20074;-81
2020/12/04 04:17:59;;;;;;;5.30;3.08;;;7.40;87.30;;;7.05;74.11;97188.59;4977530;28;20070;-81
2020/12/04 04:20:26;;;;;;;6.03;3.33;;;7.40;87.00;;;7.08;74.29;97202.69;4976798;28;20062;-81
2020/12/04 04:22:53;;;;;;;5.43;2.83;;;7.40;87.20;;;7.05;74.76;97191.31;4976922;28;20078;-81
2020/12/04 04:25:20;;;;;;;5.03;2.75;;;7.50;87.30;;;6.97;74.21;97189.03;4977071;28;20063;-81
2020/12/04 04:27:47;;;;;;;6.22;3.03;;;7.50;86.70;;;6.99;74.71;97189.59;4977314;28;20070;-80
2020/12/04 04:30:15;;;;;;;5.13;2.92;;;7.50;87.10;;;7.06;75.23;97208.34;4977238;28;20051;-81
2020/12/04 04:32:41;;;;;;;6.22;3.30;;;7.50;87.40;;;7.11;75.64;97199.53;4977125;28;20042;-80
2020/12/04 04:35:08;;;;;;;5.60;3.08;;;7.40;87.70;;;7.14;75.50;97209.84;4976592;28;20078;-80
2020/12/04 04:37:35;;;;;;;5.68;3.08;;;7.50;88.10;;;7.10;75.08;97192.47;4977008;28;20058;-81
2020/12/04 04:40:04;;;;;;;5.55;3.08;;;7.50;87.90;;;7.11;75.47;97200.34;4977174;28;20494;-81
2020/12/04 04:42:31;;;;;;;6.22;3.25;;;7.50;87.80;;;7.10;75.00;97197.88;4978088;28;20046;-81
2020/12/04 04:45:01;;;;;;;5.43;2.95;;;7.50;87.70;;;7.03;74.72;97187.22;4979440;28;20476;-81
2020/12/04 04:47:31;;;;;;;5.70;3.10;;;7.60;87.10;;;7.07;75.17;97187.56;4980871;28;20054;-80
2020/12/04 04:49:58;;;;;;;6.97;3.70;;;7.60;87.50;;;7.07;74.65;97201.88;4978605;28;20702;-80
2020/12/04 04:52:26;;;;;;;6.05;3.33;;;7.50;87.20;;;7.16;74.81;97189.63;4978969;28;20077;-83
2020/12/04 04:54:53;;;;;;;6.15;3.72;;;7.50;87.50;;;7.12;74.28;97190.34;4978058;28;20094;-81
2020/12/04 04:57:25;;;;;;;5.28;3.05;;;7.50;87.10;;;7.05;74.80;97194.00;4976078;28;20043;-80
2020/12/04 04:59:53;;;;;;;6.05;3.22;;;7.60;86.80;;;7.09;74.32;97186.25;4980010;28;20687;-78
2020/12/04 05:02:20;;;;;;;6.13;3.20;;;7.60;86.80;;;7.08;74.46;97194.59;4976568;28;20047;-78
2020/12/04 05:04:55;;;;;;;6.72;3.35;;;7.60;86.90;;;7.10;73.83;97187.06;4974453;28;20062;-80
2020/12/04 05:07:30;;;;;;;5.65;3.15;;;7.60;86.50;;;7.02;73.65;97223.41;4959706;29;20098;-80
2020/12/04 05:10:11;;;;;;;5.55;3.00;;;7.60;86.20;;;7.04;73.84;97214.03;4960171;29;20051;-80
2020/12/04 05:12:42;;;;;;;5.68;3.08;;;7.60;86.10;;;7.12;74.45;97190.34;4960700;29;20765;-80
2020/12/04 05:15:26;;;;;;;5.50;3.22;;;7.70;86.40;;;7.15;73.85;97206.06;4958471;29;20051;-80
2020/12/04 05:18:06;;;;;;;5.97;3.42;;;7.70;86.50;;;7.16;74.06;97210.41;4960108;29;20051;-80
2020/12/04 05:20:34;;;;;;;7.60;3.30;;;7.70;86.10;;;7.17;74.52;97201.25;4959164;29;20047;-80
2020/12/04 05:23:02;;;;;;;7.18;3.30;;;7.70;86.50;;;7.13;74.15;97208.22;4959109;29;20514;-80
2020/12/04 05:25:35;;;;;;;5.05;2.92;;;7.70;85.70;;;7.18;73.66;97189.38;4959338;28;20868;-80
2020/12/04 05:28:13;;;;;;;5.85;3.10;;;7.70;86.00;;;7.12;73.06;97217.38;4959068;28;20035;-80
2020/12/04 05:30:42;;;;;;;7.00;3.47;;;7.70;85.40;;;7.17;73.76;97214.75;4958510;28;20047;-80
2020/12/04 05:33:10;;;;;;;6.05;3.63;;;7.70;85.90;;;7.21;73.78;97194.28;4958335;28;20058;-80
2020/12/04 05:35:37;;;;;;;5.65;3.03;;;7.70;86.20;;;7.21;73.73;97210.50;4958085;28;20062;-80
2020/12/04 05:38:16;;;;;;;5.07;2.80;;;7.70;85.80;;;7.19;73.45;97226.16;4958491;28;20081;-79
2020/12/04 05:40:45;;;;;;;5.53;3.25;;;7.70;85.80;;;7.24;73.31;97215.44;4956988;29;20047;-80
2020/12/04 05:43:15;;;;;;;5.78;2.55;;;7.70;85.80;;;7.24;73.03;97208.13;4957117;28;20044;-80
2020/12/04 05:45:42;;;;;;;5.13;2.85;;;7.70;85.80;;;7.28;73.82;97216.59;4957202;28;20047;-80
2020/12/04 05:48:14;;;;;;;5.05;2.80;;;7.80;85.90;;;7.27;73.37;97228.44;4956837;28;20130;-80
2020/12/04 05:50:41;;;;;;;;;;;7.80;85.60;;;7.29;73.16;97225.50;4986962;28;20128;-80
2020/12/04 05:53:11;;;;;;;4.68;2.63;;;7.80;85.40;;;7.30;73.63;97224.44;4995266;28;19934;-79
2020/12/04 05:55:38;;;;;;;5.53;3.13;;;7.80;85.40;;;7.33;73.92;97237.47;4995064;28;20140;-80
2020/12/04 05:58:11;;;;;;;5.47;3.03;;;7.80;85.50;;;7.28;73.58;97237.41;4994195;28;20473;-80
2020/12/04 06:00:38;;;;;;;6.97;3.00;;;7.80;85.30;;;7.32;73.77;97233.94;4996409;28;20065;-80
2020/12/04 06:03:06;;;;;;;6.70;3.25;;;7.80;85.70;;;7.33;73.19;97241.03;4995076;28;20074;-80
2020/12/04 06:05:33;;;;;;;4.85;2.80;;;7.80;85.60;;;7.33;72.47;97246.44;4996188;28;20487;-80
2020/12/04 06:08:02;;;;;;;5.00;2.80;;;7.80;85.30;;;7.31;72.09;97243.16;4995007;28;20101;-78
2020/12/04 06:10:32;;;;;;;5.20;2.60;;;7.80;84.90;;;7.34;73.63;97242.63;4954939;28;20070;-79
2020/12/04 06:13:00;;;;;;;5.20;3.00;;;7.80;85.40;;;7.30;73.54;97241.50;4974011;28;20067;-78
2020/12/04 06:15:29;;;;;;;4.57;2.50;;;7.80;85.40;;;7.34;72.80;97253.47;4973484;28;20066;-78
2020/12/04 06:18:06;;;;;;;4.30;2.60;;;7.80;85.40;;;7.38;72.66;97253.78;4975082;28;20169;-78
2020/12/04 06:20:44;;;;;;;4.57;2.40;;;7.80;85.40;;;7.30;73.34;97257.72;4974601;28;20079;-79
2020/12/04 06:23:14;;;;;;;5.10;2.50;;;7.90;85.00;;;7.37;73.53;97258.41;4975851;28;20543;-79
2020/12/04 06:26:05;;;;;;;4.47;2.35;;;7.80;85.50;;;7.42;73.57;97249.53;4976162;28;20058;-78
2020/12/04 06:28:39;;;;;;;3.90;2.40;;;7.80;86.00;;;7.44;73.31;97259.06;4976238;28;20495;-78
2020/12/04 06:31:09;;;;;;;4.43;2.38;;;7.80;86.00;;;7.33;73.13;97232.91;4973988;28;20426;-78
2020/12/04 06:33:41;;;;;;;4.15;2.40;;;7.90;85.50;;;7.39;73.40;97245.44;4972254;28;20055;-79
2020/12/04 06:36:10;;;;;;;4.05;2.20;;;7.90;85.80;;;7.47;73.88;97251.53;4975457;28;20074;-78
2020/12/04 06:38:48;;;;;;;4.60;2.20;;;7.80;86.00;;;7.42;73.39;97244.97;4975816;28;20054;-79
2020/12/04 06:41:27;;;;;;;5.50;2.50;;;7.80;85.70;;;7.48;73.73;97253.16;4966888;28;20051;-78
2020/12/04 06:43:58;;;;;;;5.40;2.63;;;7.80;86.10;;;7.44;73.33;97269.88;4976240;28;20038;-79
2020/12/04 06:46:37;;;;;;;4.57;2.40;;;7.80;85.90;;;7.39;73.95;97250.84;4976108;28;20055;-78
2020/12/04 06:49:37;;;;;;;4.47;2.40;;;7.90;85.60;;;7.38;73.96;97253.78;4976161;28;20050;-78
2020/12/04 06:52:13;;;;;;;4.15;2.25;;;7.90;85.80;;;7.42;73.72;97254.94;4974560;28;20043;-79
2020/12/04 06:54:41;;;;;;;3.92;2.20;;;7.90;85.80;;;7.46;73.52;97256.09;4975760;28;20075;-79
2020/12/04 06:57:09;;;;;;;3.97;2.25;;;7.90;85.90;;;7.49;73.97;97254.81;4975707;28;20500;-79
2020/12/04 06:59:38;;;;;;;4.32;2.10;;;7.90;86.00;;;7.44;73.60;97253.66;4975443;28;20126;-79
2020/12/04 07:02:08;;;;;;;4.20;2.35;;;7.90;85.90;;;7.46;73.36;97255.28;4976079;28;20133;-79
2020/12/04 07:04:38;;;;;;;6.17;2.40;;;7.90;85.70;;;7.50;73.74;97267.25;4975051;28;20050;-79
2020/12/04 07:07:14;;;;;;;4.13;1.95;;;7.90;86.00;;;7.45;73.46;97262.59;4976008;28;20046;-78
2020/12/04 07:09:42;;;;;;;4.45;2.08;;;7.90;85.70;;;7.50;73.46;97275.38;4975550;28;20106;-78
2020/12/04 07:12:15;;;;;;;4.10;2.10;;;8.00;85.70;;;7.52;73.60;97292.16;4975850;28;20458;-79
2020/12/04 07:14:47;;;;;;;3.90;2.00;;;8.00;85.80;;;7.50;73.89;97281.63;4975259;28;20093;-79
2020/12/04 07:17:16;;;;;;;3.70;2.00;;;8.00;85.70;;;7.50;73.56;97286.19;4975327;28;20108;-78
2020/12/04 07:19:46;;;;;;;3.72;2.10;;;8.00;85.80;;;7.56;74.05;97286.03;4975033;28;20380;-78
2020/12/04 07:22:15;;;;;;;3.03;1.60;;;8.00;85.90;;;7.56;73.99;97293.34;4964719;28;20487;-78
2020/12/04 07:24:43;;;;;;;4.50;2.30;;;8.00;86.00;;;7.54;73.60;97300.88;4955729;29;20062;-78
2020/12/04 07:27:14;;;;;;;3.55;1.73;;;8.00;85.80;;;7.53;74.01;97291.13;4955954;28;20105;-78
2020/12/04 07:29:41;;;;;;;3.40;1.77;;;8.00;85.50;;;7.53;73.97;97299.25;4955842;29;20134;-78
2020/12/04 07:32:08;;;;;;;6.78;2.05;;;8.10;85.60;;;7.54;74.44;97304.41;4955864;28;20066;-78
2020/12/04 07:34:37;;;;;;;5.25;2.03;;;8.10;85.60;;;7.58;73.70;97302.03;4962102;28;20051;-78
2020/12/04 07:37:07;;;;;;;4.30;2.00;;;8.10;85.50;;;7.56;73.88;97310.41;4974391;28;20059;-78
2020/12/04 07:39:36;;;;;;;8.88;2.10;;;8.10;85.60;;;7.60;73.82;97321.56;4974969;28;20047;-78
2020/12/04 07:42:05;;;;;;;4.40;2.10;;;8.10;85.70;;;7.58;73.24;97321.78;4974775;28;20624;-78
2020/12/04 07:44:36;;;;;;;3.83;2.15;;;8.10;85.90;;;7.57;74.31;97332.84;4966046;28;20114;-78
2020/12/04 07:47:09;;;;;;;3.50;1.85;;;8.10;85.70;;;7.57;73.70;97332.84;4971558;28;20050;-78
2020/12/04 07:49:41;;;;;;;3.67;1.77;;;8.10;85.60;;;7.59;74.68;97330.72;4971517;28;20395;-77
2020/12/04 07:52:18;;;;;;;;;;;8.20;85.60;;;7.58;73.77;97339.94;4959528;28;20055;-77
2020/12/04 07:54:46;;;;;;;3.47;1.83;;;8.20;85.60;;;7.62;74.39;97346.50;4974494;28;19922;-78
2020/12/04 07:57:13;;;;;;;4.82;1.98;;;8.20;85.60;;;7.67;73.84;97337.63;4975064;28;20046;-78
2020/12/04 07:59:41;;;;;;;4.30;1.80;;;8.20;85.80;;;7.71;73.89;97346.88;4974421;28;20097;-78
2020/12/04 08:02:09;;;;;;;3.58;1.83;;;8.10;86.20;;;7.71;74.21;97355.84;4967664;28;20039;-78
2020/12/04 08:04:36;;;;;;;4.00;1.75;;;8.20;85.90;;;7.73;73.68;97344.75;4955060;28;20043;-78
2020/12/04 08:07:08;;;;;;;15.43;3.40;;;8.20;86.00;;;7.74;73.91;97349.94;4971847;28;20051;-78
2020/12/04 08:09:38;;;;;;;5.10;1.70;;;8.20;86.10;;;7.75;74.09;97351.59;4972612;28;20566;-78
2020/12/04 08:12:15;;;;;;;4.10;1.80;;;8.20;86.00;;;7.73;73.93;97348.31;4975221;28;20050;-79
2020/12/04 08:14:50;;;;;;;5.32;1.90;;;8.20;86.10;;;7.78;74.32;97359.19;4958798;28;20046;-78
2020/12/04 08:17:21;;;;;;;6.47;1.77;;;8.20;86.30;;;7.80;74.30;97359.78;4972494;28;20066;-78
2020/12/04 08:19:49;;;;;;;3.22;1.50;;;8.20;86.20;;;7.75;74.05;97367.84;4972011;28;20086;-78
2020/12/04 08:22:16;;;;;;;3.40;1.58;;;8.20;86.10;;;7.79;73.70;97358.16;4977545;28;20058;-79
2020/12/04 08:25:02;;;;;;;2.67;1.30;;;8.20;86.00;;;7.79;73.59;97354.63;4977597;28;20058;-78
2020/12/04 08:27:30;;;;;;;4.15;1.77;;;8.30;85.80;;;7.82;73.80;97378.50;4959694;29;20098;-79
2020/12/04 08:30:15;;;;;;;3.28;1.50;;;8.30;86.30;;;7.83;74.08;97370.13;4960307;28;20079;-79
2020/12/04 08:32:43;;;;;;;2.90;1.30;;;8.30;85.70;;;7.82;73.81;97373.91;4968150;28;20152;-79
2020/12/04 08:35:14;;;;;;;3.65;1.60;;;8.30;85.70;;;7.82;73.52;97389.31;4977690;28;20046;-77
2020/12/04 08:37:42;;;;;;;3.33;1.50;;;8.40;85.70;;;7.87;73.91;97385.91;4971099;28;20533;-79
2020/12/04 08:40:29;;;;;;;4.00;1.38;;;8.40;85.70;;;7.87;73.88;97381.28;4959677;29;20086;-79
2020/12/04 08:43:10;;;;;;;5.13;1.48;;;8.50;85.50;;;7.94;73.88;97386.53;4958992;29;20044;-79
2020/12/04 08:45:38;;;;;;;3.17;1.20;;;8.40;85.70;;;7.89;73.49;97381.06;4959392;29;20110;-79
2020/12/04 08:48:10;;;;;;;3.95;1.30;;;8.50;84.90;;;7.91;73.47;97384.34;4966033;28;20046;-79
2020/12/04 08:50:44;;;;;;;3.83;1.10;;;8.50;85.50;;;7.88;73.45;97382.09;4978356;28;20055;-79
2020/12/04 08:53:13;;;;;;;4.68;1.20;;;8.60;85.10;;;7.89;73.83;97378.34;4978093;28;20038;-79
2020/12/04 08:55:46;;;;;;;4.20;1.30;;;8.60;84.90;;;7.94;74.03;97391.94;4976790;28;20074;-79
2020/12/04 08:58:15;;;;;;;4.38;1.00;;;8.60;85.30;;;7.96;73.18;97390.66;4970246;28;20126;-79
2020/12/04 09:00:43;;;;;;;5.95;1.30;;;8.60;85.00;;;7.92;73.70;97388.66;4977544;28;20392;-79
2020/12/04 09:03:10;;;;;;;3.80;1.10;;;8.60;84.70;;;7.88;73.69;97390.22;4976864;28;20051;-78
2020/12/04 09:05:37;;;;;;;5.07;1.30;;;8.70;84.60;;;7.92;73.27;97394.09;4976559;28;20055;-78
2020/12/04 09:08:04;;;;;;;2.80;1.30;;;8.70;84.80;;;7.99;73.94;97386.63;4971846;28;20043;-78
2020/12/04 09:10:32;;;;;;;2.53;1.10;;;8.70;85.00;;;7.98;73.49;97393.13;4967684;28;20507;-78
2020/12/04 09:13:00;;;;;;;2.47;1.10;;;8.70;84.70;;;8.03;73.64;97395.91;4976535;28;20126;-78
2020/12/04 09:15:29;;;;;;;3.95;1.23;;;8.70;85.10;;;8.01;73.41;97384.50;4974331;28;20047;-78
2020/12/04 09:17:56;;;;;;;2.17;0.90;;;8.70;84.60;;;8.02;73.19;97388.84;4964954;28;20491;-78
2020/12/04 09:20:24;;;;;;;2.85;1.20;;;8.70;84.70;;;8.06;72.68;97390.00;4958279;28;20043;-78
2020/12/04 09:22:52;;;;;;;3.33;0.98;;;8.70;84.50;;;8.03;73.15;97391.34;4963170;28;20050;-78
2020/12/04 09:25:19;;;;;;;3.78;1.20;;;8.80;84.30;;;8.06;74.00;97400.84;4975275;28;20113;-78
2020/12/04 09:27:46;;;;;;;2.60;1.08;;;8.80;84.40;;;8.09;73.50;97394.09;4976153;28;20050;-78
2020/12/04 09:30:16;;;;;;;2.83;1.00;;;8.80;84.60;;;8.13;73.68;97401.50;4975484;28;20757;-78
2020/12/04 09:32:43;;;;;;;2.10;0.98;;;8.80;85.20;;;8.14;73.43;97407.75;4971448;28;20047;-77
2020/12/04 09:35:10;;;;;;;4.45;1.00;;;8.80;84.70;;;8.14;73.63;97408.56;4966571;28;20400;-78
2020/12/04 09:37:38;;;;;;;2.63;1.00;;;8.80;84.50;;;8.12;72.60;97410.69;4957895;29;20051;-78
2020/12/04 09:40:08;;;;;;;2.88;1.00;;;8.80;84.00;;;8.16;73.24;97417.25;4956193;28;20051;-78
2020/12/04 09:42:35;;;;;;;2.17;1.00;;;8.80;84.40;;;8.14;73.56;97424.00;4956284;29;20050;-77
2020/12/04 09:45:04;;;;;;;2.97;1.15;;;8.90;84.10;;;8.15;72.98;97434.59;4956436;28;20047;-77
2020/12/04 09:47:33;;;;;;;2.30;1.00;;;8.90;84.00;;;8.10;72.07;97437.19;4957428;29;20054;-78
2020/12/04 09:50:00;;;;;;;2.53;0.90;;;8.90;83.30;;;8.09;73.05;97432.88;4956702;28;20043;-78
2020/12/04 09:52:27;;;;;;;2.67;1.10;;;9.00;83.00;;;8.12;73.02;97432.34;4956339;29;20562;-78
2020/12/04 09:54:56;;;;;;;3.13;1.17;;;9.00;83.30;;;8.15;72.96;97439.19;4955350;29;20047;-78
2020/12/04 09:57:24;;;;;;;3.30;1.10;;;9.00;83.00;;;8.18;72.93;97446.81;4959684;28;20122;-77
2020/12/04 09:59:51;;;;;;;2.13;0.85;;;9.00;83.00;;;8.20;72.91;97466.34;4956386;28;20496;-77
2020/12/04 10:02:18;;;;;;;3.47;1.00;;;9.10;82.80;;;8.20;72.31;97467.16;4955183;28;20039;-77
2020/12/04 10:04:46;;;;;;;2.78;0.93;;;9.10;82.50;;;8.21;71.96;97479.66;4963704;28;20043;-77
2020/12/04 10:07:13;;;;;;;4.47;1.20;;;9.20;82.00;;;8.19;72.11;97479.06;4958625;28;20055;-77
2020/12/04 10:09:39;;;;;;;3.33;1.02;;;9.20;81.80;;;8.16;72.20;97484.97;4964601;28;20075;-77
2020/12/04 10:12:06;;;;;;;4.43;1.00;;;9.30;81.50;;;8.20;72.52;97482.59;4955630;29;20172;-77
2020/12/04 10:14:34;;;;;;;2.53;0.90;;;9.20;81.90;;;8.23;72.10;97480.22;4971209;28;20050;-77
2020/12/04 10:17:02;;;;;;;2.75;0.95;;;9.20;82.20;;;8.23;72.26;97491.06;4971744;28;20046;-78
2020/12/04 10:19:29;;;;;;;2.30;0.90;;;9.20;82.00;;;8.19;71.80;97489.91;4975115;28;20047;-78
2020/12/04 10:21:57;;;;;;;6.47;1.00;;;9.20;81.70;;;8.20;72.08;97483.41;4972942;28;20054;-77
2020/12/04 10:24:23;;;;;;;2.35;0.85;;;9.20;82.20;;;8.25;72.35;97473.75;4958689;28;20070;-77
2020/12/04 10:26:51;;;;;;;3.45;1.00;;;9.20;82.00;;;8.23;71.78;97490.25;4972472;28;20101;-78
2020/12/04 10:29:21;;;;;;;4.57;1.00;;;9.20;81.90;;;8.26;72.17;97478.09;4974623;28;20130;-78
2020/12/04 10:31:48;;;;;;;3.08;0.85;;;9.20;81.80;;;8.26;72.41;97483.50;4973488;28;20046;-78
2020/12/04 10:34:16;;;;;;;4.78;0.88;;;9.20;82.00;;;8.28;72.00;97484.94;4959959;28;20562;-78
2020/12/04 10:36:44;;;;;;;3.22;1.00;;;9.20;82.30;;;8.37;72.42;97472.59;4973597;28;20456;-78
2020/12/04 10:39:13;;;;;;;3.45;1.00;;;9.20;82.90;;;8.39;73.12;97473.16;4973751;28;20097;-78
2020/12/04 10:41:43;;;;;;;2.50;0.93;;;9.20;83.20;;;8.31;71.58;97467.34;4974210;28;20043;-78